Time;durP1;ratioP1;P1;durP2;ratioP2;P2;SDS_P1;SDS_P2;PMS_P1;PMS_P2;Temp;Humidity;BMP_temperature;BMP_pressure;BME280_temperature;BME280_humidity;BME280_pressure;Samples;Min_cycle;Max_cycle;Signal;HPM_P1;HPM_P2
2022/04/11 00:00:49;;;;;;;48.90;18.37;;;;;;;-0.35;100.00;147357.38;5014343;28;20053;-70
2022/04/11 00:03:15;;;;;;;50.10;18.57;;;;;;;-0.40;100.00;147345.81;5024644;28;20025;-70
2022/04/11 00:05:40;;;;;;;44.23;18.00;;;;;;;-0.58;100.00;147298.41;5030278;28;20025;-70
2022/04/11 00:08:06;;;;;;;51.60;17.90;;;;;;;-0.64;100.00;147285.53;5031101;28;20464;-70
2022/04/11 00:10:31;;;;;;;54.73;18.17;;;;;;;-0.63;100.00;147288.09;5029113;28;20076;-70
2022/04/11 00:13:07;;;;;;;60.80;19.47;;;;;;;-0.58;100.00;147298.41;5025677;28;20034;-69
2022/04/11 00:15:34;;;;;;;54.20;19.13;;;;;;;-0.49;100.00;147322.72;5021635;28;20030;-70
2022/04/11 00:18:02;;;;;;;57.83;18.23;;;;;;;-0.49;100.00;147321.44;5013223;28;20034;-70
2022/04/11 00:20:29;;;;;;;51.13;18.63;;;;;;;-0.49;100.00;147322.72;5028121;28;20116;-69
2022/04/11 00:22:55;;;;;;;49.07;18.30;;;;;;;-0.58;100.00;147298.41;5031421;28;20029;-70
2022/04/11 00:25:20;;;;;;;49.80;17.03;;;;;;;-0.78;100.00;147249.66;5022729;28;20095;-70
2022/04/11 00:27:46;;;;;;;47.80;17.30;;;;;;;-0.90;100.00;147218.88;5031570;28;20068;-70
2022/04/11 00:30:12;;;;;;;46.30;15.80;;;;;;;-0.75;100.00;147257.34;5028759;28;20470;-70
2022/04/11 00:32:43;;;;;;;49.17;17.13;;;;;;;-0.75;100.00;147257.34;5020456;28;20053;-70
2022/04/11 00:35:10;;;;;;;59.05;18.13;;;;;;;-0.55;100.00;147306.06;5024574;28;20747;-70
2022/04/11 00:37:37;;;;;;;50.80;17.87;;;;;;;-0.40;100.00;147344.53;5025978;28;20072;-70
2022/04/11 00:40:06;;;;;;;54.10;18.47;;;;;;;-0.30;100.00;147371.47;5026976;28;20061;-70
2022/04/11 00:42:32;;;;;;;56.17;18.80;;;;;;;-0.26;100.00;147380.44;5030814;28;20025;-70
2022/04/11 00:45:00;;;;;;;58.63;20.17;;;;;;;-0.27;100.00;147377.88;5027973;28;20071;-70
2022/04/11 00:47:27;;;;;;;63.97;20.30;;;;;;;-0.25;100.00;147381.72;5029080;28;20072;-70
2022/04/11 00:50:02;;;;;;;65.53;20.53;;;;;;;-0.32;100.00;147365.06;5020881;28;20040;-70
2022/04/11 00:52:30;;;;;;;51.90;19.43;;;;;;;-0.37;100.00;147353.50;5009278;28;20397;-70
2022/04/11 00:54:57;;;;;;;58.30;20.77;;;;;;;-0.48;100.00;147325.31;5024410;28;20102;-70
2022/04/11 00:57:23;;;;;;;65.07;20.33;;;;;;;-0.53;100.00;147311.19;5030391;28;20488;-70
2022/04/11 00:59:49;;;;;;;66.80;20.77;;;;;;;-0.46;100.00;147329.19;5016417;28;20026;-70
2022/04/11 01:02:14;;;;;;;59.93;19.70;;;;;;;-0.40;100.00;147345.81;5025480;28;20014;-69
2022/04/11 01:04:41;;;;;;;62.80;20.83;;;;;;;-0.41;100.00;147341.97;5029110;28;20511;-69
2022/04/11 01:07:08;;;;;;;62.30;19.30;;;;;;;-0.60;100.00;147295.84;5019900;28;20017;-70
2022/04/11 01:09:34;;;;;;;55.23;18.17;;;;;;;-0.76;100.00;147254.78;5012294;28;20604;-70
2022/04/11 01:12:01;;;;;;;54.50;17.63;;;;;;;-0.91;100.00;147217.59;5022175;28;20438;-69
2022/04/11 01:14:27;;;;;;;60.63;19.20;;;;;;;-0.97;100.00;147200.91;5022333;28;20017;-69
2022/04/11 01:16:52;;;;;;;62.67;20.53;;;;;;;-0.83;100.00;147236.84;5024411;28;20029;-69
2022/04/11 01:19:19;;;;;;;66.77;22.10;;;;;;;-0.75;100.00;147257.34;5020559;28;20489;-69
2022/04/11 01:21:47;;;;;;;70.47;22.40;;;;;;;-0.64;100.00;147284.25;5026626;28;20083;-69
2022/04/11 01:24:13;;;;;;;68.97;22.13;;;;;;;-0.56;100.00;147303.50;5026834;28;20560;-69
2022/04/11 01:26:38;;;;;;;69.63;22.93;;;;;;;-0.53;100.00;147311.19;5022022;28;20041;-69
2022/04/11 01:29:04;;;;;;;66.40;24.00;;;;;;;-0.50;100.00;147318.88;5027364;28;20029;-69
2022/04/11 01:31:32;;;;;;;73.90;24.13;;;;;;;-0.54;100.00;147308.63;5024480;28;20029;-69
2022/04/11 01:33:58;;;;;;;61.60;22.47;;;;;;;-0.68;100.00;147275.31;5029471;28;20381;-69
2022/04/11 01:36:23;;;;;;;68.13;24.20;;;;;;;-0.72;100.00;147265.06;5022921;28;20032;-69
2022/04/11 01:38:49;;;;;;;75.20;25.33;;;;;;;-0.77;100.00;147252.22;5022626;28;20029;-69
2022/04/11 01:41:14;;;;;;;67.57;25.67;;;;;;;-0.73;100.00;147261.19;5024678;28;20698;-69
2022/04/11 01:43:40;;;;;;;65.97;24.80;;;;;;;-0.76;100.00;147254.78;5024998;28;20025;-69
2022/04/11 01:46:05;;;;;;;62.83;24.23;;;;;;;-0.80;100.00;147244.53;5025720;28;20033;-69
2022/04/11 01:48:30;;;;;;;65.30;25.07;;;;;;;-0.75;100.00;147256.06;5004026;28;20516;-69
2022/04/11 01:50:56;;;;;;;82.57;31.20;;;;;;;-0.75;100.00;147257.34;5024601;28;21613;-69
2022/04/11 01:53:21;;;;;;;75.03;28.37;;;;;;;-0.70;100.00;147270.19;5023102;28;20043;-69
2022/04/11 01:55:47;;;;;;;82.60;31.30;;;;;;;-0.64;100.00;147284.25;5020870;28;20021;-69
2022/04/11 01:58:14;;;;;;;82.50;31.60;;;;;;;-0.50;100.00;147318.88;5023509;28;20025;-69
2022/04/11 02:00:40;;;;;;;67.60;25.53;;;;;;;-0.66;100.00;147280.44;5020562;28;20029;-69
2022/04/11 02:03:07;;;;;;;57.37;21.63;;;;;;;-0.76;100.00;147254.78;5023188;28;20102;-70
2022/04/11 02:05:33;;;;;;;62.07;23.67;;;;;;;-0.58;100.00;147298.41;5023179;28;20033;-70
2022/04/11 02:08:00;;;;;;;63.83;23.50;;;;;;;-0.66;100.00;147280.44;5025876;28;20032;-70
2022/04/11 02:10:26;;;;;;;58.97;24.80;;;;;;;-0.77;100.00;147252.22;5026303;28;20144;-70
2022/04/11 02:12:53;;;;;;;63.00;26.53;;;;;;;-0.85;100.00;147230.41;5018615;28;20025;-70
2022/04/11 02:15:18;;;;;;;69.80;27.00;;;;;;;-0.97;100.00;147200.91;5025842;28;20036;-70
2022/04/11 02:17:47;;;;;;;75.33;32.13;;;;;;;-0.94;100.00;147208.66;5020431;28;20049;-70
2022/04/11 02:20:13;;;;;;;85.07;31.73;;;;;;;-0.95;100.00;147207.38;5020337;28;20029;-69
2022/04/11 02:22:46;;;;;;;84.63;32.00;;;;;;;-0.87;100.00;147226.56;5026683;28;20056;-70
2022/04/11 02:25:12;;;;;;;74.20;28.60;;;;;;;-1.01;100.00;147190.69;5020015;28;20038;-70
2022/04/11 02:27:37;;;;;;;85.20;31.83;;;;;;;-0.88;100.00;147224.00;5027740;28;20021;-70
2022/04/11 02:30:04;;;;;;;76.87;28.87;;;;;;;-1.03;100.00;147185.56;5019100;28;20040;-70
2022/04/11 02:32:29;;;;;;;79.07;30.07;;;;;;;-1.00;100.00;147193.25;5018161;28;20033;-70
2022/04/11 02:34:55;;;;;;;84.17;32.53;;;;;;;-1.12;100.00;147162.47;5025583;28;20119;-70
2022/04/11 02:37:21;;;;;;;77.97;32.20;;;;;;;-1.11;100.00;147165.03;5015092;28;20026;-69
2022/04/11 02:39:46;;;;;;;88.00;35.23;;;;;;;-1.11;100.00;147165.03;5023269;28;20032;-70
2022/04/11 02:42:22;;;;;;;77.63;31.33;;;;;;;-0.96;100.00;147203.53;5018109;28;20045;-70
2022/04/11 02:44:48;;;;;;;88.30;33.60;;;;;;;-0.95;100.00;147206.09;5025921;28;20032;-70
2022/04/11 02:47:14;;;;;;;88.37;32.97;;;;;;;-0.89;100.00;147222.72;5024785;28;20152;-70
2022/04/11 02:49:39;;;;;;;86.87;33.43;;;;;;;-0.86;100.00;147229.13;5016080;28;20037;-70
2022/04/11 02:52:05;;;;;;;76.77;32.43;;;;;;;-0.83;100.00;147235.56;5028150;28;20040;-70
2022/04/11 02:54:30;;;;;;;86.23;33.67;;;;;;;-0.85;100.00;147231.69;5017878;28;20113;-70
2022/04/11 02:56:56;;;;;;;84.90;33.30;;;;;;;-0.82;100.00;147239.41;5021649;28;20378;-70
2022/04/11 02:59:21;;;;;;;84.93;32.60;;;;;;;-0.84;100.00;147234.28;5026432;28;20104;-70
2022/04/11 03:01:46;;;;;;;83.33;32.57;;;;;;;-0.85;100.00;147231.69;5023792;28;20030;-70
2022/04/11 03:04:12;;;;;;;86.93;34.20;;;;;;;-0.92;100.00;147213.78;5023155;28;20175;-70
2022/04/11 03:06:37;;;;;;;91.13;33.40;;;;;;;-0.85;100.00;147231.69;5027296;28;20025;-70
2022/04/11 03:09:02;;;;;;;85.07;31.57;;;;;;;-0.88;100.00;147224.00;5027500;28;20036;-70
2022/04/11 03:11:28;;;;;;;77.07;30.23;;;;;;;-0.95;100.00;147206.09;5018173;28;20014;-70
2022/04/11 03:13:53;;;;;;;97.90;36.00;;;;;;;-1.00;100.00;147193.25;5025160;28;20080;-70
2022/04/11 03:16:19;;;;;;;93.53;37.77;;;;;;;-1.04;100.00;147184.28;5024448;28;20108;-70
2022/04/11 03:18:44;;;;;;;99.80;40.47;;;;;;;-0.94;100.00;147208.66;5026774;28;20114;-70
2022/04/11 03:21:09;;;;;;;102.70;43.30;;;;;;;-0.84;100.00;147234.28;5023227;28;20025;-69
2022/04/11 03:23:35;;;;;;;100.57;42.73;;;;;;;-0.82;100.00;147239.41;5025511;28;20115;-70
2022/04/11 03:26:00;;;;;;;96.37;41.13;;;;;;;-0.87;100.00;147226.56;5030838;28;20014;-70
2022/04/11 03:28:25;;;;;;;95.43;41.00;;;;;;;-0.92;100.00;147215.03;5025667;28;20486;-70
2022/04/11 03:30:50;;;;;;;103.57;39.97;;;;;;;-0.92;100.00;147213.78;5027919;28;20409;-70
2022/04/11 03:33:16;;;;;;;96.17;40.77;;;;;;;-0.86;100.00;147229.13;5029594;28;20104;-70
2022/04/11 03:35:42;;;;;;;106.47;44.20;;;;;;;-0.94;100.00;147208.66;5024670;28;20030;-70
2022/04/11 03:38:07;;;;;;;115.67;45.80;;;;;;;-0.90;100.00;147220.16;5014236;28;20033;-70
2022/04/11 03:40:32;;;;;;;111.73;43.13;;;;;;;-0.88;100.00;147224.00;5026826;28;20029;-69
2022/04/11 03:42:58;;;;;;;108.63;45.43;;;;;;;-0.86;100.00;147227.84;5024045;28;20358;-70
2022/04/11 03:45:23;;;;;;;112.47;46.60;;;;;;;-0.79;100.00;147245.81;5026860;28;20798;-70
2022/04/11 03:47:49;;;;;;;106.27;45.77;;;;;;;-0.83;100.00;147236.84;5031379;28;20407;-70
2022/04/11 03:50:14;;;;;;;114.00;46.80;;;;;;;-0.90;100.00;147218.88;5021441;28;20033;-69
2022/04/11 03:52:40;;;;;;;100.33;43.47;;;;;;;-0.83;100.00;147236.84;5027654;28;20121;-70
2022/04/11 03:55:05;;;;;;;107.50;43.33;;;;;;;-0.82;100.00;147239.41;5026733;28;20112;-69
2022/04/11 03:57:32;;;;;;;96.70;42.70;;;;;;;-0.87;100.00;147226.56;5031286;28;20496;-69
2022/04/11 03:59:57;;;;;;;105.13;46.10;;;;;;;-0.84;100.00;147234.28;5030301;28;20440;-69
2022/04/11 04:02:22;;;;;;;105.40;45.90;;;;;;;-0.81;100.00;147241.97;5027218;28;20029;-69
2022/04/11 04:04:48;;;;;;;106.50;43.13;;;;;;;-0.89;100.00;147221.44;5030564;28;20021;-70
2022/04/11 04:07:13;;;;;;;92.57;38.93;;;;;;;-0.92;100.00;147213.78;5027509;28;20028;-70
2022/04/11 04:09:38;;;;;;;107.77;42.23;;;;;;;-1.08;100.00;147172.78;5023191;28;20065;-70
2022/04/11 04:12:04;;;;;;;95.87;43.40;;;;;;;-1.09;100.00;147170.16;5024009;28;20033;-69
2022/04/11 04:14:30;;;;;;;93.93;40.17;;;;;;;-1.21;100.00;147142.00;5030251;28;20063;-70
2022/04/11 04:16:56;;;;;;;97.13;42.13;;;;;;;-1.12;100.00;147162.47;5023445;28;20823;-70
2022/04/11 04:19:21;;;;;;;100.50;42.90;;;;;;;-1.17;100.00;147149.69;5018524;28;20029;-70
2022/04/11 04:21:47;;;;;;;109.40;42.77;;;;;;;-1.04;100.00;147183.00;5026163;28;20033;-69
2022/04/11 04:24:12;;;;;;;97.97;38.23;;;;;;;-1.12;100.00;147162.47;5025502;28;20025;-69
2022/04/11 04:26:38;;;;;;;85.40;34.90;;;;;;;-1.13;100.00;147161.22;5016640;28;20083;-69
2022/04/11 04:29:03;;;;;;;81.70;33.10;;;;;;;-1.20;100.00;147143.28;5024994;28;20049;-69
2022/04/11 04:31:30;;;;;;;75.90;34.07;;;;;;;-1.19;100.00;147145.84;5029577;28;20412;-69
2022/04/11 04:33:55;;;;;;;81.80;35.60;;;;;;;-1.16;100.00;147153.53;5020527;28;20029;-69
2022/04/11 04:36:20;;;;;;;87.33;36.47;;;;;;;-1.17;100.00;147149.69;5027533;28;20087;-69
2022/04/11 04:38:46;;;;;;;108.70;41.73;;;;;;;-1.17;100.00;147149.69;5026419;28;20671;-69
2022/04/11 04:41:11;;;;;;;110.57;41.50;;;;;;;-1.21;100.00;147142.00;5022198;28;20477;-69
2022/04/11 04:43:37;;;;;;;99.93;40.63;;;;;;;-1.11;100.00;147166.31;5022304;28;20038;-69
2022/04/11 04:46:02;;;;;;;90.70;36.93;;;;;;;-1.09;100.00;147170.16;5023797;28;20402;-69
2022/04/11 04:48:28;;;;;;;86.70;35.17;;;;;;;-1.05;100.00;147181.72;5023813;28;20022;-70
2022/04/11 04:50:54;;;;;;;91.50;36.67;;;;;;;-1.03;100.00;147185.56;5025833;28;20021;-70
2022/04/11 04:53:19;;;;;;;114.80;46.57;;;;;;;-0.94;100.00;147208.66;5027219;28;20029;-69
2022/04/11 04:55:45;;;;;;;131.47;57.20;;;;;;;-0.89;100.00;147222.72;5016360;28;20044;-70
2022/04/11 04:58:10;;;;;;;128.33;58.03;;;;;;;-0.67;100.00;147277.88;5021564;28;20493;-69
2022/04/11 05:00:35;;;;;;;125.27;54.77;;;;;;;-0.63;100.00;147286.81;5026417;28;20167;-70
2022/04/11 05:03:01;;;;;;;136.97;63.17;;;;;;;-0.53;100.00;147311.19;5030760;28;20030;-69
2022/04/11 05:05:26;;;;;;;154.60;67.53;;;;;;;-0.46;100.00;147330.47;5029251;28;20533;-70
2022/04/11 05:07:51;;;;;;;175.20;82.17;;;;;;;-0.37;100.00;147352.22;5027612;28;20017;-70
2022/04/11 05:10:17;;;;;;;120.03;54.37;;;;;;;-0.30;100.00;147370.19;5020806;28;20029;-70
2022/04/11 05:12:45;;;;;;;126.67;54.50;;;;;;;-0.21;100.00;147392.00;5024709;28;20539;-70
2022/04/11 05:15:11;;;;;;;128.93;56.00;;;;;;;-0.15;100.00;147408.66;5026573;28;20025;-70
2022/04/11 05:17:37;;;;;;;121.10;55.90;;;;;;;-0.09;100.00;147422.81;5026004;28;20032;-70
2022/04/11 05:20:04;;;;;;;101.03;48.73;;;;;;;-0.06;100.00;147430.47;5021296;28;20029;-70
2022/04/11 05:22:30;;;;;;;110.87;48.37;;;;;;;-0.01;100.00;147444.56;5023199;28;20033;-70
2022/04/11 05:24:55;;;;;;;101.00;49.17;;;;;;;0.13;100.00;147477.97;5022587;28;20022;-70
2022/04/11 05:27:21;;;;;;;110.50;52.63;;;;;;;0.24;100.00;147506.16;5015641;28;20030;-70
2022/04/11 05:29:46;;;;;;;106.47;50.27;;;;;;;0.39;100.00;147544.69;5022016;28;20030;-70
2022/04/11 05:32:11;;;;;;;95.27;47.83;;;;;;;0.55;100.00;147584.47;5016488;28;20108;-70
2022/04/11 05:34:37;;;;;;;107.57;49.03;;;;;;;0.81;100.00;147651.22;5020657;28;20390;-70
2022/04/11 05:37:02;;;;;;;92.10;44.87;;;;;;;0.96;100.00;147688.44;5015038;28;20029;-70
2022/04/11 05:39:30;;;;;;;91.60;41.87;;;;;;;1.10;100.00;147723.16;5027622;28;20037;-70
2022/04/11 05:41:55;;;;;;;79.70;39.77;;;;;;;1.33;100.00;147780.94;5029956;28;20025;-70
2022/04/11 05:44:21;;;;;;;66.37;34.67;;;;;;;1.44;100.00;147809.19;5026159;28;20029;-70
2022/04/11 05:46:52;;;;;;;65.40;34.67;;;;;;;1.49;100.00;147822.06;5025490;28;20029;-70
2022/04/11 05:49:21;;;;;;;58.20;31.55;;;;;;;1.57;100.00;147842.59;5017454;28;20022;-69
2022/04/11 05:51:46;;;;;;;49.87;26.73;;;;;;;1.65;100.00;147863.16;5021309;28;20021;-70
2022/04/11 05:54:12;;;;;;;47.00;24.40;;;;;;;1.88;100.00;147919.72;5015117;28;20029;-70
2022/04/11 05:56:37;;;;;;;46.03;23.37;;;;;;;2.06;100.00;147966.03;5027458;28;20029;-70
2022/04/11 05:59:03;;;;;;;40.97;22.90;;;;;;;2.07;100.00;147968.59;5028271;28;20018;-70
2022/04/11 06:01:30;;;;;;;39.30;18.97;;;;;;;2.14;100.00;147986.56;5026197;28;20025;-70
2022/04/11 06:03:55;;;;;;;30.97;18.30;;;;;;;2.31;100.00;148030.28;5026958;28;20025;-70
2022/04/11 06:06:20;;;;;;;32.10;18.67;;;;;;;2.46;100.00;148067.56;5029058;28;20032;-70
2022/04/11 06:08:46;;;;;;;31.93;18.23;;;;;;;2.84;100.00;148164.03;5029151;28;20059;-70
2022/04/11 06:11:12;;;;;;;32.03;16.23;;;;;;;3.02;100.00;148207.75;5027929;28;20029;-70
2022/04/11 06:13:37;;;;;;;26.83;16.37;;;;;;;3.66;100.00;148369.94;5022656;28;20497;-70
2022/04/11 06:16:04;;;;;;;25.67;13.37;;;;;;;3.97;100.00;148448.44;5011142;28;20026;-70
2022/04/11 06:18:30;;;;;;;24.07;11.93;;;;;;;4.16;100.00;148496.13;5027285;28;20112;-70
2022/04/11 06:20:55;;;;;;;17.30;10.30;;;;;;;4.87;100.00;148676.50;5028004;28;20021;-70
2022/04/11 06:23:21;;;;;;;18.90;9.90;;;;;;;5.80;100.00;148912.41;5024503;28;20029;-71
2022/04/11 06:25:46;;;;;;;14.63;8.23;;;;;;;6.25;100.00;149027.28;5025322;28;20057;-71
2022/04/11 06:28:11;;;;;;;12.33;6.80;;;;;;;6.98;100.00;149213.16;5026264;28;20014;-71
2022/04/11 06:30:37;;;;;;;10.33;5.87;;;;;;;7.61;100.00;149372.03;5023405;28;20108;-71
2022/04/11 06:33:02;;;;;;;10.67;5.30;;;;;;;7.24;100.00;149277.72;5017891;28;20028;-71
2022/04/11 06:35:27;;;;;;;10.80;5.40;;;;;;;7.75;100.00;149408.19;5006082;28;20873;-71
2022/04/11 06:37:53;;;;;;;9.23;4.40;;;;;;;8.50;100.00;149598.28;5020714;28;20030;-71
2022/04/11 06:40:18;;;;;;;7.73;4.40;;;;;;;9.04;100.00;149735.34;5004205;28;20026;-71
2022/04/11 06:42:43;;;;;;;10.83;4.40;;;;;;;9.81;100.00;145186.66;5018678;28;20026;-71
2022/04/11 06:45:09;;;;;;;7.97;4.30;;;;;;;10.03;100.00;104496.06;5023481;28;20037;-71
2022/04/11 06:47:35;;;;;;;11.03;4.37;;;;;;;10.39;100.00;50056.84;5025702;28;20018;-72
2022/04/11 06:50:00;;;;;;;8.13;4.17;;;;;;;9.86;100.00;-19423.94;5021777;28;20054;-72
2022/04/11 06:52:25;;;;;;;9.63;3.90;;;;;;;9.47;100.00;-19413.78;5029112;28;20021;-72
2022/04/11 06:54:51;;;;;;;8.32;4.20;;;;;;;10.31;100.00;-19435.53;5024584;28;20031;-71
2022/04/11 06:57:16;;;;;;;11.77;4.28;;;;;;;10.61;100.00;-19443.16;5023618;28;20025;-71
2022/04/11 06:59:41;;;;;;;7.72;3.80;;;;;;;-145.18;100.00;60484.78;5005447;28;20037;-71
2022/04/11 07:02:07;;;;;;;8.23;3.92;;;;;;;-145.18;100.00;60484.78;5026242;28;20345;-71
2022/04/11 07:04:32;;;;;;;7.03;3.58;;;;;;;-145.18;100.00;60484.78;5026163;28;20032;-70
2022/04/11 07:06:57;;;;;;;7.65;4.18;;;;;;;-145.18;100.00;60484.78;5026709;28;20033;-71
2022/04/11 07:09:27;;;;;;;8.70;3.70;;;;;;;-145.18;100.00;60484.78;5017350;28;20028;-70
2022/04/11 07:11:53;;;;;;;7.85;3.70;;;;;;;-145.18;100.00;60484.78;5022458;28;20029;-70
2022/04/11 07:14:19;;;;;;;7.25;3.47;;;;;;;-145.18;100.00;60484.78;5027917;28;20108;-70
2022/04/11 07:16:44;;;;;;;7.20;3.70;;;;;;;-145.18;100.00;60484.78;5017314;28;20456;-71
2022/04/11 07:19:10;;;;;;;6.00;3.70;;;;;;;-145.18;100.00;60484.78;5020014;28;20036;-70
2022/04/11 07:21:35;;;;;;;7.63;3.75;;;;;;;-145.18;100.00;60484.78;5026143;28;20401;-71
2022/04/11 07:24:00;;;;;;;8.80;3.40;;;;;;;-145.18;100.00;60484.78;5019480;28;20028;-70
2022/04/11 07:26:26;;;;;;;7.43;3.88;;;;;;;-145.18;100.00;60484.78;5024806;28;20401;-70
2022/04/11 07:28:51;;;;;;;7.50;3.90;;;;;;;-145.18;100.00;60484.78;5024800;28;20041;-70
2022/04/11 07:31:16;;;;;;;6.28;3.40;;;;;;;-145.18;100.00;60484.78;5023070;28;20034;-70
2022/04/11 07:33:43;;;;;;;6.72;3.60;;;;;;;-145.18;100.00;60484.78;5020207;28;20038;-71
2022/04/11 07:36:08;;;;;;;8.27;3.75;;;;;;;-145.18;100.00;60484.78;5024939;28;20048;-70
2022/04/11 07:38:34;;;;;;;8.13;4.13;;;;;;;-145.18;100.00;60484.78;5006013;28;20041;-70
2022/04/11 07:40:59;;;;;;;7.72;4.47;;;;;;;-145.18;100.00;60484.78;5017816;28;20091;-70
2022/04/11 07:43:24;;;;;;;8.48;4.40;;;;;;;-145.18;100.00;60484.78;5018822;28;20490;-70
2022/04/11 07:45:50;;;;;;;7.75;4.07;;;;;;;-145.18;100.00;60484.78;5017667;28;20394;-70
2022/04/11 07:48:15;;;;;;;6.95;4.10;;;;;;;-145.18;100.00;60484.78;5017179;28;20032;-71
2022/04/11 07:50:41;;;;;;;11.25;4.45;;;;;;;-145.18;100.00;60484.78;5018809;28;20034;-70
2022/04/11 07:53:06;;;;;;;9.85;4.53;;;;;;;-145.18;100.00;60484.78;5013999;28;20030;-71
2022/04/11 07:55:33;;;;;;;8.05;4.00;;;;;;;-145.18;100.00;60484.78;5017261;28;20449;-70
2022/04/11 07:57:59;;;;;;;9.63;4.43;;;;;;;-145.18;100.00;60484.78;5017286;28;20034;-71
2022/04/11 08:00:25;;;;;;;8.10;4.43;;;;;;;-145.18;100.00;60484.78;5020602;28;20026;-71
2022/04/11 08:02:52;;;;;;;7.28;4.55;;;;;;;-145.18;100.00;60484.78;5025880;28;20033;-71
2022/04/11 08:05:19;;;;;;;7.22;4.25;;;;;;;-145.18;100.00;60484.78;5016318;28;20037;-70
2022/04/11 08:07:46;;;;;;;7.90;4.55;;;;;;;-145.18;100.00;60484.78;5020970;28;20111;-70
2022/04/11 08:10:11;;;;;;;7.97;4.45;;;;;;;-145.18;100.00;60484.78;5027782;28;20136;-70
2022/04/11 08:12:37;;;;;;;10.60;5.18;;;;;;;-145.18;100.00;60484.78;5025984;28;20060;-70
2022/04/11 08:15:03;;;;;;;10.07;4.93;;;;;;;-145.18;100.00;60484.78;5016637;28;20078;-70
2022/04/11 08:17:28;;;;;;;8.00;5.20;;;;;;;-145.18;100.00;60484.78;5019899;28;20028;-70
2022/04/11 08:19:53;;;;;;;9.23;4.93;;;;;;;-145.18;100.00;60484.78;5021548;28;20026;-70
2022/04/11 08:22:19;;;;;;;9.80;4.63;;;;;;;-145.18;100.00;60484.78;5022763;28;20055;-70
2022/04/11 08:24:44;;;;;;;10.50;4.60;;;;;;;-145.18;100.00;60484.78;5022838;28;20056;-70
2022/04/11 08:27:10;;;;;;;7.30;4.07;;;;;;;-145.18;100.00;60484.78;5007438;28;20548;-70
2022/04/11 08:29:36;;;;;;;9.33;4.60;;;;;;;-145.18;100.00;60484.78;5023871;28;20511;-70
2022/04/11 08:32:01;;;;;;;8.48;4.45;;;;;;;-145.18;100.00;60484.78;5019349;28;20030;-70
2022/04/11 08:34:27;;;;;;;8.40;3.80;;;;;;;-145.18;100.00;60484.78;5019409;28;20061;-70
2022/04/11 08:36:52;;;;;;;8.68;4.70;;;;;;;-145.18;100.00;60484.78;5020527;28;20021;-70
2022/04/11 08:39:17;;;;;;;7.15;4.00;;;;;;;-145.18;100.00;60484.78;5018129;28;20025;-70
2022/04/11 08:41:43;;;;;;;7.72;4.25;;;;;;;-145.18;100.00;60484.78;5022030;28;20049;-70
2022/04/11 08:44:09;;;;;;;7.55;4.47;;;;;;;-145.18;100.00;60484.78;5019821;28;20313;-71
2022/04/11 08:46:35;;;;;;;8.40;4.60;;;;;;;-145.18;100.00;60484.78;5021540;28;20048;-70
2022/04/11 08:49:03;;;;;;;8.90;4.40;;;;;;;-145.18;100.00;60484.78;5021065;28;20381;-71
2022/04/11 08:51:33;;;;;;;9.77;4.13;;;;;;;-145.18;100.00;60484.78;5023034;28;20025;-71
2022/04/11 08:54:04;;;;;;;10.55;3.83;;;;;;;-145.18;100.00;60484.78;5020302;28;20548;-71
2022/04/11 08:56:29;;;;;;;8.20;3.93;;;;;;;-145.18;100.00;60484.78;5024332;28;20052;-70
2022/04/11 08:58:55;;;;;;;6.60;3.72;;;;;;;-145.18;100.00;60484.78;5022859;28;20032;-70
2022/04/11 09:01:21;;;;;;;6.70;3.67;;;;;;;-145.18;100.00;60484.78;5020251;28;20596;-70
2022/04/11 09:03:47;;;;;;;8.63;3.72;;;;;;;-145.18;100.00;60484.78;5021567;28;20029;-70
2022/04/11 09:06:17;;;;;;;9.32;3.80;;;;;;;-145.18;100.00;60484.78;5026144;28;20570;-71
2022/04/11 09:08:49;;;;;;;9.50;3.70;;;;;;;-145.18;100.00;60484.78;5018378;28;20033;-70
2022/04/11 09:11:27;;;;;;;8.68;3.92;;;;;;;-145.18;100.00;60484.78;5014601;28;20026;-70
2022/04/11 09:13:52;;;;;;;7.45;3.60;;;;;;;-145.18;100.00;60484.78;5017034;28;20973;-71
2022/04/11 09:16:19;;;;;;;7.30;3.58;;;;;;;-145.18;100.00;60484.78;5025926;28;20052;-70
2022/04/11 09:18:52;;;;;;;7.35;3.33;;;;;;;-145.18;100.00;60484.78;5020643;28;20046;-71
2022/04/11 09:21:21;;;;;;;6.18;2.95;;;;;;;-145.18;100.00;60484.78;5022511;28;20046;-70
2022/04/11 09:23:47;;;;;;;9.30;2.90;;;;;;;-145.18;100.00;60484.78;5016313;28;20348;-71
2022/04/11 09:26:20;;;;;;;5.97;2.67;;;;;;;-145.18;100.00;60484.78;5016833;28;20147;-70
2022/04/11 09:28:59;;;;;;;10.85;3.30;;;;;;;-145.18;100.00;60484.78;5011400;28;20026;-71
2022/04/11 09:31:25;;;;;;;6.78;3.00;;;;;;;-145.18;100.00;60484.78;5015414;28;20037;-71
2022/04/11 09:33:51;;;;;;;6.13;2.83;;;;;;;-145.18;100.00;60484.78;5024149;28;20360;-71
2022/04/11 09:36:16;;;;;;;7.75;2.90;;;;;;;-145.18;100.00;60484.78;5018322;28;20231;-71
2022/04/11 09:38:41;;;;;;;8.52;3.13;;;;;;;-145.18;100.00;60484.78;5014301;28;20371;-71
2022/04/11 09:41:07;;;;;;;6.85;3.20;;;;;;;-145.18;100.00;60484.78;5012559;28;20028;-72
2022/04/11 09:43:33;;;;;;;6.72;3.10;;;;;;;-145.18;100.00;60484.78;5024288;28;20096;-71
2022/04/11 09:46:10;;;;;;;5.95;2.70;;;;;;;-145.18;100.00;60484.78;5016470;28;20025;-72
2022/04/11 09:48:36;;;;;;;5.80;2.80;;;;;;;-145.18;100.00;60484.78;5022103;28;20026;-72
2022/04/11 09:51:08;;;;;;;8.10;2.90;;;;;;;-145.18;100.00;60484.78;5017432;28;20052;-72
2022/04/11 09:53:35;;;;;;;8.73;3.15;;;;;;;-145.18;100.00;60484.78;5015006;28;20493;-72
2022/04/11 09:56:08;;;;;;;7.80;3.25;;;;;;;-145.18;100.00;60484.78;5021729;28;20029;-71
2022/04/11 09:58:38;;;;;;;7.00;3.20;;;;;;;-145.18;100.00;60484.78;5020607;28;20091;-71
2022/04/11 10:01:05;;;;;;;6.45;3.28;;;;;;;-145.18;100.00;60484.78;5021375;28;20036;-72
2022/04/11 10:03:31;;;;;;;7.30;3.30;;;;;;;-145.18;100.00;60484.78;5019583;28;20041;-72
2022/04/11 10:05:57;;;;;;;7.97;3.30;;;;;;;-145.18;100.00;60484.78;5004448;28;20087;-71
2022/04/11 10:08:25;;;;;;;7.00;3.60;;;;;;;-145.18;100.00;60484.78;5015286;28;20026;-71
2022/04/11 10:10:51;;;;;;;6.70;3.58;;;;;;;-145.18;100.00;60484.78;5016287;28;20021;-72
2022/04/11 10:13:16;;;;;;;10.57;4.38;;;;;;;-145.18;100.00;60484.78;5019632;28;20596;-71
2022/04/11 10:15:45;;;;;;;11.55;3.83;;;;;;;-145.18;100.00;60484.78;5020733;28;20108;-72
2022/04/11 10:18:14;;;;;;;9.82;4.00;;;;;;;-145.18;100.00;60484.78;5011771;28;20554;-72
2022/04/11 10:20:44;;;;;;;6.32;3.75;;;;;;;-145.18;100.00;60484.78;5020986;28;20033;-72
2022/04/11 10:23:13;;;;;;;6.95;3.70;;;;;;;-145.18;100.00;60484.78;5021861;28;20071;-72
2022/04/11 10:25:48;;;;;;;11.15;3.97;;;;;;;-145.18;100.00;60484.78;5024475;28;20041;-72
2022/04/11 10:28:22;;;;;;;8.75;4.10;;;;;;;-145.18;100.00;60484.78;5024690;28;20294;-72
2022/04/11 10:31:06;;;;;;;9.13;4.10;;;;;;;-145.18;100.00;60484.78;5023104;28;20083;-72
2022/04/11 10:33:57;;;;;;;9.05;4.63;;;;;;;-145.18;100.00;60484.78;5023231;28;20029;-71
2022/04/11 10:36:31;;;;;;;7.18;4.20;;;;;;;-145.18;100.00;60484.78;5023499;28;20033;-71
2022/04/11 10:39:15;;;;;;;9.43;4.13;;;;;;;-145.18;100.00;60484.78;5020128;28;20037;-71
2022/04/11 10:42:03;;;;;;;6.90;4.35;;;;;;;-145.18;100.00;60484.78;5016427;28;20449;-71
2022/04/11 10:44:53;;;;;;;8.95;4.22;;;;;;;-145.18;100.00;60484.78;5016233;28;20060;-71
2022/04/11 10:47:21;;;;;;;7.90;4.18;;;;;;;-145.18;100.00;60484.78;5015550;28;20584;-71
2022/04/11 10:49:58;;;;;;;7.93;4.57;;;;;;;-145.18;100.00;60484.78;5019163;28;20029;-71
2022/04/11 10:52:27;;;;;;;9.60;4.63;;;;;;;-145.18;100.00;60484.78;5027127;28;20029;-71
2022/04/11 10:54:55;;;;;;;9.20;4.97;;;;;;;-145.18;100.00;60484.78;5024477;28;21459;-71
2022/04/11 10:57:39;;;;;;;8.80;4.82;;;;;;;-145.18;100.00;60484.78;5028558;28;20414;-71
2022/04/11 11:00:11;;;;;;;7.00;4.40;;;;;;;-145.18;100.00;60484.78;5023064;28;20486;-71
2022/04/11 11:02:52;;;;;;;8.43;4.97;;;;;;;-145.18;100.00;60484.78;5018452;28;20044;-70